PAGY/SGY METAR and TAF weather

Enter ICAO airport designator
Station Type Date Time Source
PAGY METAR 2020/09/24 08:02 UTC NOAA

PAGY 240802Z AUTO 00000KT 7SM -RA FEW001 BKN017 OVC055 10/09 A2926 RMK AO2 P0000 T01000094 TSNO


Station Type Date Time Source
PAGY Decoded METAR 2020/09/24 08:02 UTC NOAA

SKAGWAY AIRPORT, AK, United States (PAGY) 59-28N 135-19W 5M
Sep 24, 2020 - 04:02 AM EDT / 2020.09.24 0802 UTC
Wind: Calm:0
Visibility: 7 mile(s):0
Sky conditions: overcast
Weather: light rain
Precipitation last hour: A trace
Temperature: 50.0 F (10.0 C)
Dew Point: 48.9 F (9.4 C)
Relative Humidity: 96%
Pressure (altimeter): 29.26 in. Hg (990 hPa)
ob: PAGY 240802Z AUTO 00000KT 7SM -RA FEW001 BKN017 OVC055 10/09 A2926 RMK AO2 P0000 T01000094 TSNO
cycle: 8

Station Type Date Time Source
PAGY TAF 2020/09/24 12:32 UTC NOAA

TAF PAGY 241130Z 2412/2512 04003KT P6SM -SHRA FEW002 BKN017 OVC050
FM242100 22008KT P6SM VCSH OVC050
AMD NOT SKED

Example: see airport list